createdAt,value
2022-10-17T00:00:59.603Z,0
2022-10-17T00:01:59.337Z,0
2022-10-17T00:02:59.348Z,0
2022-10-17T00:04:02.138Z,0
2022-10-17T00:04:59.323Z,0
2022-10-17T00:05:59.487Z,0
2022-10-17T00:06:59.323Z,0
2022-10-17T00:07:59.233Z,0
2022-10-17T00:08:59.126Z,0
2022-10-17T00:09:59.099Z,0
2022-10-17T00:10:59.595Z,0
2022-10-17T00:11:59.486Z,0
2022-10-17T00:12:59.222Z,0
2022-10-17T00:13:59.244Z,0
2022-10-17T00:15:02.452Z,0
2022-10-17T00:15:59.489Z,0
2022-10-17T00:16:59.226Z,0
2022-10-17T00:17:59.134Z,0
2022-10-17T00:18:59.277Z,0
2022-10-17T00:19:59.297Z,0
2022-10-17T00:20:59.481Z,0
2022-10-17T00:21:59.259Z,0
2022-10-17T00:22:59.276Z,0
2022-10-17T00:23:59.124Z,0
2022-10-17T00:24:59.317Z,0
2022-10-17T00:26:05.173Z,0
2022-10-17T00:26:59.488Z,0
2022-10-17T00:27:59.194Z,0
2022-10-17T00:28:59.328Z,0
2022-10-17T00:29:59.290Z,0
2022-10-17T00:30:59.573Z,0
2022-10-17T00:31:59.213Z,0
2022-10-17T00:32:59.142Z,0
2022-10-17T00:33:59.237Z,0
2022-10-17T00:34:59.188Z,0
2022-10-17T00:35:59.551Z,0
2022-10-17T00:37:02.151Z,0
2022-10-17T00:37:59.211Z,0
2022-10-17T00:38:59.152Z,0
2022-10-17T00:39:59.275Z,0
2022-10-17T00:40:59.621Z,0
2022-10-17T00:41:59.548Z,0
2022-10-17T00:42:59.197Z,0
2022-10-17T00:43:59.209Z,0
2022-10-17T00:44:59.203Z,0
2022-10-17T00:45:59.555Z,0
2022-10-17T00:46:59.331Z,0
2022-10-17T00:48:02.155Z,0
2022-10-17T00:48:59.193Z,0
2022-10-17T00:49:59.264Z,0
2022-10-17T00:50:59.594Z,0
2022-10-17T00:51:59.273Z,0
2022-10-17T00:52:59.227Z,0
2022-10-17T00:53:59.110Z,0
2022-10-17T00:54:59.111Z,0
2022-10-17T00:55:59.552Z,0
2022-10-17T00:56:59.486Z,0
2022-10-17T00:57:59.180Z,0
2022-10-17T00:59:02.209Z,0
2022-10-17T00:59:59.252Z,0
2022-10-17T01:00:59.790Z,0
2022-10-17T01:01:59.223Z,0
2022-10-17T01:02:59.128Z,0
2022-10-17T01:03:59.112Z,0
2022-10-17T01:04:59.218Z,0
2022-10-17T01:05:59.553Z,0
2022-10-17T01:06:59.296Z,0
2022-10-17T01:07:59.225Z,0
2022-10-17T01:08:59.132Z,0
2022-10-17T01:10:02.262Z,0
2022-10-17T01:10:59.489Z,0
2022-10-17T01:11:59.490Z,0
2022-10-17T01:12:59.199Z,0
2022-10-17T01:13:59.194Z,0
2022-10-17T01:14:59.208Z,0
2022-10-17T01:16:05.215Z,0
2022-10-17T01:16:59.292Z,0
2022-10-17T01:17:59.184Z,0
2022-10-17T01:18:59.223Z,0
2022-10-17T01:19:59.220Z,0
2022-10-17T01:20:59.552Z,0
2022-10-17T01:21:59.113Z,0
2022-10-17T01:22:59.149Z,0
2022-10-17T01:23:59.212Z,0
2022-10-17T01:24:59.132Z,0
2022-10-17T01:26:00.550Z,0
2022-10-17T01:27:05.207Z,0
2022-10-17T01:27:59.299Z,0
2022-10-17T01:28:59.185Z,0
2022-10-17T01:29:59.277Z,0
2022-10-17T01:30:59.323Z,0
2022-10-17T01:31:59.480Z,0
2022-10-17T01:32:59.210Z,0
2022-10-17T01:33:59.267Z,0
2022-10-17T01:34:59.302Z,0
2022-10-17T01:36:03.259Z,0
2022-10-17T01:36:59.530Z,0
2022-10-17T01:38:02.112Z,0
2022-10-17T01:38:59.302Z,0
2022-10-17T01:39:59.228Z,0
2022-10-17T01:40:59.154Z,0
2022-10-17T01:41:59.567Z,0
2022-10-17T01:42:59.180Z,0
2022-10-17T01:43:59.105Z,0
2022-10-17T01:44:59.119Z,0
2022-10-17T01:45:59.223Z,0
2022-10-17T01:46:59.562Z,0
2022-10-17T01:47:59.192Z,0
2022-10-17T01:49:02.143Z,0
2022-10-17T01:49:59.217Z,0
2022-10-17T01:50:59.225Z,0
2022-10-17T01:51:59.479Z,0
2022-10-17T01:52:59.302Z,0
2022-10-17T01:53:59.120Z,0
2022-10-17T01:54:59.210Z,0
2022-10-17T01:55:59.236Z,0
2022-10-17T01:56:59.483Z,0
2022-10-17T01:57:59.288Z,0
2022-10-17T01:58:59.343Z,0
2022-10-17T02:00:02.439Z,0
2022-10-17T02:00:59.267Z,0
2022-10-17T02:01:59.596Z,0
2022-10-17T02:02:59.290Z,0
2022-10-17T02:03:59.241Z,0
2022-10-17T02:04:59.310Z,0
2022-10-17T02:05:59.260Z,0
2022-10-17T02:06:59.612Z,0
2022-10-17T02:07:59.344Z,0
2022-10-17T02:08:59.193Z,0
2022-10-17T02:09:59.123Z,0
2022-10-17T02:11:02.164Z,0
2022-10-17T02:11:59.510Z,0
2022-10-17T02:12:59.217Z,0
2022-10-17T02:13:59.301Z,0
2022-10-17T02:14:59.204Z,0
2022-10-17T02:15:59.131Z,0
2022-10-17T02:16:59.480Z,0
2022-10-17T02:17:59.217Z,0
2022-10-17T02:18:59.216Z,0
2022-10-17T02:19:59.244Z,0
2022-10-17T02:20:59.308Z,0
2022-10-17T02:22:05.169Z,0
2022-10-17T02:22:59.279Z,0
2022-10-17T02:23:59.125Z,0
2022-10-17T02:24:59.214Z,0
2022-10-17T02:25:59.227Z,0
2022-10-17T02:26:59.555Z,0
2022-10-17T02:27:59.133Z,0
2022-10-17T02:28:59.187Z,0
2022-10-17T02:29:59.265Z,0
2022-10-17T02:30:59.326Z,0
2022-10-17T02:31:59.473Z,0
2022-10-17T02:33:02.253Z,0
2022-10-17T02:33:59.201Z,0
2022-10-17T02:34:59.125Z,0
2022-10-17T02:35:59.114Z,0
2022-10-17T02:36:59.553Z,0
2022-10-17T02:37:59.198Z,0
2022-10-17T02:38:59.258Z,0
2022-10-17T02:39:59.260Z,0
2022-10-17T02:40:59.259Z,0
2022-10-17T02:41:59.638Z,0
2022-10-17T02:42:59.239Z,0
2022-10-17T02:44:02.601Z,0
2022-10-17T02:44:59.308Z,0
2022-10-17T02:45:59.187Z,0
2022-10-17T02:46:59.560Z,0
2022-10-17T02:47:59.205Z,0
2022-10-17T02:48:59.135Z,0
2022-10-17T02:49:59.294Z,0
2022-10-17T02:50:59.258Z,0
2022-10-17T02:51:59.487Z,0
2022-10-17T02:52:59.301Z,0
2022-10-17T02:53:59.194Z,0
2022-10-17T02:55:02.176Z,0
2022-10-17T02:55:59.193Z,0
2022-10-17T02:56:59.148Z,0
2022-10-17T02:57:59.270Z,0
2022-10-17T02:58:59.205Z,0
2022-10-17T02:59:59.142Z,0
2022-10-17T03:00:59.218Z,0
2022-10-17T03:01:59.557Z,0
2022-10-17T03:02:59.215Z,0
2022-10-17T03:03:59.118Z,0
2022-10-17T03:04:59.231Z,0
2022-10-17T03:06:02.157Z,0
2022-10-17T03:06:59.483Z,0
2022-10-17T03:07:59.226Z,0
2022-10-17T03:08:59.112Z,0
2022-10-17T03:09:59.108Z,0
2022-10-17T03:10:59.113Z,0
2022-10-17T03:11:59.196Z,0
2022-10-17T03:12:59.554Z,0
2022-10-17T03:13:59.333Z,0
2022-10-17T03:14:59.225Z,0
2022-10-17T03:15:59.142Z,0
2022-10-17T03:17:05.167Z,0
2022-10-17T03:17:59.289Z,0
2022-10-17T03:18:59.243Z,0
2022-10-17T03:19:59.259Z,0
2022-10-17T03:20:59.342Z,0
2022-10-17T03:21:59.524Z,0
2022-10-17T03:22:59.217Z,0
2022-10-17T03:23:59.100Z,0
2022-10-17T03:24:59.139Z,0
2022-10-17T03:25:59.272Z,0
2022-10-17T03:26:59.306Z,0
2022-10-17T03:28:05.172Z,0
2022-10-17T03:28:59.364Z,0
2022-10-17T03:29:59.180Z,0
2022-10-17T03:30:59.123Z,0
2022-10-17T03:31:59.560Z,0
2022-10-17T03:32:59.197Z,0
2022-10-17T03:33:59.229Z,0
2022-10-17T03:34:59.240Z,0
2022-10-17T03:35:59.260Z,0
2022-10-17T03:36:59.666Z,0
2022-10-17T03:37:59.211Z,0
2022-10-17T03:39:02.156Z,0
2022-10-17T03:39:59.220Z,0
2022-10-17T03:40:59.158Z,0
2022-10-17T03:41:59.569Z,0
2022-10-17T03:42:59.797Z,0
2022-10-17T03:43:59.299Z,0
2022-10-17T03:44:59.247Z,0
2022-10-17T03:45:59.216Z,0
2022-10-17T03:46:59.491Z,0
2022-10-17T03:47:59.299Z,0
2022-10-17T03:48:59.170Z,0
2022-10-17T03:50:02.138Z,0
2022-10-17T03:50:59.193Z,0
2022-10-17T03:51:59.564Z,0
2022-10-17T03:52:59.276Z,0
2022-10-17T03:53:59.121Z,0
2022-10-17T03:54:59.221Z,0
2022-10-17T03:55:59.163Z,0
2022-10-17T03:56:59.489Z,0
2022-10-17T03:57:59.537Z,0
2022-10-17T03:58:59.325Z,0
2022-10-17T03:59:59.280Z,0
2022-10-17T04:01:02.318Z,0
2022-10-17T04:01:59.489Z,0
2022-10-17T04:02:59.106Z,0
2022-10-17T04:03:59.245Z,0
2022-10-17T04:04:59.303Z,0
2022-10-17T04:05:59.245Z,0
2022-10-17T04:06:59.481Z,0
2022-10-17T04:08:02.387Z,0
2022-10-17T04:08:59.125Z,0
2022-10-17T04:09:59.139Z,0
2022-10-17T04:10:59.266Z,0
2022-10-17T04:12:02.292Z,0
2022-10-17T04:12:59.479Z,0
2022-10-17T04:13:59.299Z,0
2022-10-17T04:14:59.132Z,0
2022-10-17T04:15:59.224Z,0
2022-10-17T04:17:00.261Z,0
2022-10-17T04:17:59.153Z,0
2022-10-17T04:18:59.098Z,0
2022-10-17T04:19:59.284Z,0
2022-10-17T04:20:59.294Z,0
2022-10-17T04:21:59.262Z,0
2022-10-17T04:23:05.142Z,0
2022-10-17T04:23:59.215Z,0
2022-10-17T04:24:59.258Z,0
2022-10-17T04:25:59.172Z,0
2022-10-17T04:26:59.268Z,0
2022-10-17T04:27:59.482Z,0
2022-10-17T04:28:59.137Z,0
2022-10-17T04:29:59.121Z,0
2022-10-17T04:30:59.215Z,0
2022-10-17T04:31:59.267Z,0
2022-10-17T04:32:59.294Z,0
2022-10-17T04:34:02.191Z,0
2022-10-17T04:34:59.336Z,0
2022-10-17T04:35:59.205Z,0
2022-10-17T04:36:59.245Z,0
2022-10-17T04:37:59.483Z,0
2022-10-17T04:38:59.221Z,0
2022-10-17T04:39:59.114Z,0
2022-10-17T04:40:59.125Z,0
2022-10-17T04:41:59.115Z,0
2022-10-17T04:42:59.590Z,0
2022-10-17T04:43:59.218Z,0
2022-10-17T04:45:02.407Z,0
2022-10-17T04:45:59.289Z,0
2022-10-17T04:46:59.125Z,0
2022-10-17T04:47:59.554Z,0
2022-10-17T04:48:59.128Z,0
2022-10-17T04:49:59.247Z,0
2022-10-17T04:50:59.225Z,0
2022-10-17T04:51:59.304Z,0
2022-10-17T04:52:59.244Z,0
2022-10-17T04:53:59.547Z,0
2022-10-17T04:54:59.207Z,0
2022-10-17T04:56:02.264Z,0
2022-10-17T04:56:59.198Z,0
2022-10-17T04:57:59.579Z,0
2022-10-17T04:58:59.321Z,0
2022-10-17T04:59:59.370Z,0
2022-10-17T05:00:59.304Z,0
2022-10-17T05:01:59.255Z,0
2022-10-17T05:02:59.533Z,0
2022-10-17T05:03:59.204Z,0
2022-10-17T05:04:59.122Z,0
2022-10-17T05:05:59.225Z,0
2022-10-17T05:07:02.126Z,0
2022-10-17T05:07:59.494Z,0
2022-10-17T05:08:59.294Z,0
2022-10-17T05:09:59.296Z,0
2022-10-17T05:12:09.492Z,0
2022-10-17T05:13:06.561Z,0
2022-10-17T05:14:06.667Z,0
2022-10-17T05:15:06.630Z,0
2022-10-17T05:16:06.554Z,0
2022-10-17T05:17:09.568Z,0
2022-10-17T05:18:06.801Z,0
2022-10-17T05:19:06.603Z,0
2022-10-17T05:20:06.570Z,0
2022-10-17T05:21:06.522Z,0
2022-10-17T05:22:06.554Z,0
2022-10-17T05:23:06.808Z,0
2022-10-17T05:24:06.445Z,0
2022-10-17T05:25:06.453Z,0
2022-10-17T05:26:06.435Z,0
2022-10-17T05:27:06.427Z,0
2022-10-17T05:28:09.583Z,0
2022-10-17T05:29:06.691Z,0
2022-10-17T05:30:06.489Z,0
2022-10-17T05:31:06.558Z,0
2022-10-17T05:32:06.574Z,0
2022-10-17T05:33:06.803Z,0
2022-10-17T05:34:09.052Z,0
2022-10-17T05:35:06.530Z,0
2022-10-17T05:36:06.511Z,0
2022-10-17T05:37:06.491Z,0
2022-10-17T05:38:06.877Z,0
2022-10-17T05:39:09.560Z,0
2022-10-17T05:40:06.512Z,0
2022-10-17T05:41:06.449Z,0
2022-10-17T05:42:06.436Z,0
2022-10-17T05:43:07.020Z,0
2022-10-17T05:44:06.651Z,0
2022-10-17T05:45:06.412Z,0
2022-10-17T05:46:06.426Z,0
2022-10-17T05:47:06.533Z,0
2022-10-17T05:48:06.901Z,0
2022-10-17T05:49:15.085Z,0
2022-10-17T05:50:09.500Z,0
2022-10-17T05:51:06.601Z,0
2022-10-17T05:52:06.506Z,0
2022-10-17T05:53:06.864Z,0
2022-10-17T05:54:06.483Z,0
2022-10-17T05:55:06.533Z,0
2022-10-17T05:56:06.542Z,0
2022-10-17T05:57:06.436Z,0
2022-10-17T05:58:06.467Z,0
2022-10-17T05:59:06.574Z,0
2022-10-17T06:00:06.576Z,0
2022-10-17T06:01:12.075Z,0
2022-10-17T06:02:06.598Z,0
2022-10-17T06:03:06.868Z,0
2022-10-17T06:04:06.496Z,0
2022-10-17T06:05:06.438Z,0
2022-10-17T06:06:06.443Z,0
2022-10-17T06:07:06.428Z,0
2022-10-17T06:08:06.800Z,0
2022-10-17T06:09:06.617Z,0
2022-10-17T06:10:06.488Z,0
2022-10-17T06:11:09.275Z,0
2022-10-17T06:12:09.417Z,0
2022-10-17T06:13:06.858Z,0
2022-10-17T06:14:06.525Z,0
2022-10-17T06:15:06.409Z,0
2022-10-17T06:16:06.431Z,0
2022-10-17T06:17:06.454Z,0
2022-10-17T06:18:06.791Z,0
2022-10-17T06:19:06.439Z,0
2022-10-17T06:20:06.500Z,0
2022-10-17T06:21:06.500Z,0
2022-10-17T06:22:06.453Z,0
2022-10-17T06:23:12.571Z,0
2022-10-17T06:24:06.537Z,0
2022-10-17T06:25:06.528Z,0
2022-10-17T06:26:06.649Z,0
2022-10-17T06:27:10.931Z,0
2022-10-17T06:28:06.802Z,0
2022-10-17T06:29:06.502Z,0
2022-10-17T06:30:06.506Z,0
2022-10-17T06:31:06.594Z,0
2022-10-17T06:32:08.610Z,0
2022-10-17T06:33:06.867Z,0
2022-10-17T06:34:09.546Z,0
2022-10-17T06:35:06.554Z,0
2022-10-17T06:36:06.483Z,0
2022-10-17T06:37:06.497Z,0
2022-10-17T06:38:06.868Z,0
2022-10-17T06:39:06.599Z,0
2022-10-17T06:40:06.560Z,0
2022-10-17T06:41:06.601Z,0
2022-10-17T06:42:06.612Z,0
2022-10-17T06:43:07.001Z,0
2022-10-17T06:44:06.588Z,0
2022-10-17T06:45:09.624Z,0
2022-10-17T06:46:06.554Z,0
2022-10-17T06:47:06.437Z,0
2022-10-17T06:48:06.784Z,0
2022-10-17T06:49:06.489Z,0
2022-10-17T06:50:06.505Z,0
2022-10-17T06:51:08.261Z,0
2022-10-17T06:52:06.426Z,0
2022-10-17T06:53:06.872Z,0
2022-10-17T06:54:06.502Z,0
2022-10-17T06:55:06.435Z,0
2022-10-17T06:56:09.597Z,0
2022-10-17T06:57:06.612Z,0
2022-10-17T06:58:06.805Z,0
2022-10-17T06:59:06.635Z,0
2022-10-17T07:00:06.415Z,0
2022-10-17T07:01:06.606Z,0
2022-10-17T07:02:06.548Z,0
2022-10-17T07:03:07.146Z,0
2022-10-17T07:04:06.574Z,0
2022-10-17T07:05:06.547Z,0
2022-10-17T07:06:06.520Z,0
2022-10-17T07:07:09.492Z,0
2022-10-17T07:08:06.798Z,0
2022-10-17T07:09:06.653Z,0
2022-10-17T07:10:06.620Z,0
2022-10-17T07:11:06.464Z,0
2022-10-17T07:12:06.437Z,0
2022-10-17T07:13:06.809Z,0
2022-10-17T07:14:06.476Z,0
2022-10-17T07:15:06.508Z,0
2022-10-17T07:16:06.568Z,0
2022-10-17T07:17:06.585Z,0
2022-10-17T07:18:12.460Z,0
2022-10-17T07:19:06.600Z,0
2022-10-17T07:20:06.408Z,0
2022-10-17T07:21:06.535Z,0
2022-10-17T07:22:06.433Z,0
2022-10-17T07:23:06.916Z,0
2022-10-17T07:24:06.573Z,0
2022-10-17T07:25:06.430Z,0
2022-10-17T07:26:06.560Z,0
2022-10-17T07:27:06.618Z,0
2022-10-17T07:28:06.918Z,0
2022-10-17T07:29:09.641Z,0
2022-10-17T07:30:06.481Z,0
2022-10-17T07:31:06.539Z,0
2022-10-17T07:32:06.577Z,0
2022-10-17T07:33:06.924Z,0
2022-10-17T07:34:06.531Z,0
2022-10-17T07:35:06.524Z,0
2022-10-17T07:36:06.541Z,0
2022-10-17T07:37:06.436Z,0
2022-10-17T07:38:06.792Z,0
2022-10-17T07:39:06.536Z,0
2022-10-17T07:40:11.901Z,0
2022-10-17T07:41:06.538Z,0
2022-10-17T07:42:06.448Z,0
2022-10-17T07:43:06.924Z,0
2022-10-17T07:44:06.511Z,0
2022-10-17T07:45:06.500Z,0
2022-10-17T07:46:06.558Z,0
2022-10-17T07:47:06.529Z,0
2022-10-17T07:48:06.791Z,0
2022-10-17T07:49:06.595Z,0
2022-10-17T07:50:06.501Z,0
2022-10-17T07:51:09.502Z,0
2022-10-17T07:52:06.634Z,0
2022-10-17T07:53:06.872Z,0
2022-10-17T07:54:06.527Z,0
2022-10-17T07:55:06.566Z,0
2022-10-17T07:56:06.536Z,0
2022-10-17T07:57:06.426Z,83.701171875
2022-10-17T07:58:06.869Z,83.669921875
2022-10-17T07:59:09.195Z,83.5341796875
2022-10-17T08:00:06.418Z,83.494140625
2022-10-17T08:01:08.351Z,83.0498046875
2022-10-17T08:02:09.470Z,82.6923828125
2022-10-17T08:03:06.816Z,82.05078125
2022-10-17T08:04:06.648Z,81.7236328125
2022-10-17T08:05:06.647Z,81.193359375
2022-10-17T08:06:06.504Z,80.060546875
2022-10-17T08:07:19.117Z,79.4541015625
2022-10-17T08:08:06.799Z,79.12890625
2022-10-17T08:09:06.435Z,78.6396484375
2022-10-17T08:10:06.584Z,78.189453125
2022-10-17T08:11:06.611Z,77.8671875
2022-10-17T08:12:06.490Z,76.654296875
2022-10-17T08:13:12.474Z,75.8623046875
2022-10-17T08:14:06.530Z,75.4169921875
2022-10-17T08:15:06.410Z,74.4833984375
2022-10-17T08:16:06.424Z,73.7685546875
2022-10-17T08:17:06.431Z,73.1943359375
2022-10-17T08:18:06.874Z,72.580078125
2022-10-17T08:19:06.435Z,71.1220703125
2022-10-17T08:20:06.448Z,70.4228515625
2022-10-17T08:21:06.446Z,70.9677734375
2022-10-17T08:22:06.532Z,71.2568359375
2022-10-17T08:23:06.872Z,70.95703125
2022-10-17T08:24:09.441Z,70.8564453125
2022-10-17T08:25:06.528Z,70.1103515625
2022-10-17T08:26:06.442Z,69.5390625
2022-10-17T08:27:06.444Z,69.61328125
2022-10-17T08:29:14.825Z,69.900390625
2022-10-17T08:30:14.765Z,69.4873046875
2022-10-17T08:31:14.848Z,68.63671875
2022-10-17T08:32:14.972Z,68.8818359375
2022-10-17T08:33:15.115Z,69.23046875
2022-10-17T08:34:17.917Z,69.37109375
2022-10-17T08:35:14.973Z,69.193359375
2022-10-17T08:36:14.981Z,69.4775390625
2022-10-17T08:37:14.919Z,69.8134765625
2022-10-17T08:38:16.821Z,68.7587890625
2022-10-17T08:39:14.840Z,69.1103515625
2022-10-17T08:40:14.757Z,69.62109375
2022-10-17T08:41:14.750Z,69.673828125
2022-10-17T08:42:14.824Z,69.455078125
2022-10-17T08:43:15.113Z,69.990234375
2022-10-17T08:44:14.854Z,69.333984375
2022-10-17T08:45:17.797Z,69.162109375
2022-10-17T08:47:22.675Z,68.5888671875
2022-10-17T08:48:23.034Z,68.7890625
2022-10-17T08:49:22.702Z,68.2568359375
2022-10-17T08:50:22.705Z,68.1650390625
2022-10-17T08:51:22.685Z,67.837890625
2022-10-17T08:52:25.676Z,67.818359375
2022-10-17T08:53:22.955Z,68.5908203125
2022-10-17T08:54:22.798Z,68.482421875
2022-10-17T08:55:22.660Z,68.34765625
2022-10-17T08:56:25.151Z,68.1123046875
2022-10-17T08:57:22.736Z,68.017578125
2022-10-17T08:58:22.998Z,67.609375
2022-10-17T08:59:22.572Z,67.4306640625
2022-10-17T09:00:22.731Z,67.5849609375
2022-10-17T09:01:22.694Z,67.642578125
2022-10-17T09:02:22.668Z,66.9638671875
2022-10-17T09:03:28.767Z,67.1953125
2022-10-17T09:04:22.820Z,67.271484375
2022-10-17T09:05:26.359Z,66.947265625
2022-10-17T09:06:22.593Z,66.7109375
2022-10-17T09:07:22.673Z,66.4208984375
2022-10-17T09:08:23.266Z,66.4775390625
2022-10-17T09:09:22.576Z,66.1865234375
2022-10-17T09:10:22.581Z,65.6357421875
2022-10-17T09:11:22.669Z,65.85546875
2022-10-17T09:12:22.683Z,65.5537109375
2022-10-17T09:13:23.055Z,64.6064453125
2022-10-17T09:14:25.787Z,65.0380859375
2022-10-17T09:15:22.677Z,65.1650390625
2022-10-17T09:16:22.694Z,65.35546875
2022-10-17T09:17:22.743Z,65.3466796875
2022-10-17T09:18:22.949Z,65.326171875
2022-10-17T09:19:22.699Z,65.6318359375
2022-10-17T09:20:22.592Z,65.052734375
2022-10-17T09:21:22.583Z,65.173828125
2022-10-17T09:22:22.596Z,65.5087890625
2022-10-17T09:23:22.713Z,65.490234375
2022-10-17T09:24:22.713Z,65.8203125
2022-10-17T09:25:25.728Z,66.1279296875
2022-10-17T09:26:22.772Z,66.4951171875
2022-10-17T09:27:22.617Z,66.10546875
2022-10-17T09:28:23.103Z,66.134765625
2022-10-17T09:29:22.744Z,65.9873046875
2022-10-17T09:30:43.603Z,65.8486328125
2022-10-17T09:31:22.659Z,65.1259765625
2022-10-17T09:32:22.589Z,64.900390625
2022-10-17T09:33:35.184Z,64.1240234375
2022-10-17T09:34:25.261Z,63.6630859375
2022-10-17T09:35:22.589Z,63.6181640625
2022-10-17T09:36:25.602Z,63.79296875
2022-10-17T09:37:22.684Z,64.2587890625
2022-10-17T09:38:23.024Z,63.884765625
2022-10-17T09:39:22.764Z,63.9140625
2022-10-17T09:40:22.696Z,64.1376953125
2022-10-17T09:41:43.466Z,64.3515625
2022-10-17T09:42:22.703Z,64.6708984375
2022-10-17T09:43:23.016Z,64.24609375
2022-10-17T09:44:22.749Z,63.9541015625
2022-10-17T09:45:22.734Z,64.0595703125
2022-10-17T09:46:22.763Z,64.0888671875
2022-10-17T09:47:25.718Z,63.794921875
2022-10-17T09:48:22.951Z,63.8447265625
2022-10-17T09:49:22.775Z,63.8427734375
2022-10-17T09:50:22.591Z,63.412109375
2022-10-17T09:51:26.074Z,63.13671875
2022-10-17T09:52:22.749Z,63.416015625
2022-10-17T09:53:22.942Z,63.4912109375
2022-10-17T09:54:22.583Z,63.3798828125
2022-10-17T09:55:22.593Z,62.92578125
2022-10-17T09:56:22.590Z,62.6083984375
2022-10-17T09:57:22.611Z,62.265625
2022-10-17T09:58:28.675Z,62.046875
2022-10-17T09:59:22.674Z,61.1943359375
2022-10-17T10:00:22.606Z,60.828125
2022-10-17T10:01:24.158Z,61.142578125
2022-10-17T10:02:22.702Z,61.7021484375
2022-10-17T10:03:22.949Z,61.3876953125
2022-10-17T10:04:22.722Z,60.62890625
2022-10-17T10:05:22.728Z,60.6611328125
2022-10-17T10:06:22.717Z,60.203125
2022-10-17T10:07:26.885Z,59.8212890625
2022-10-17T10:08:23.027Z,59.7783203125
2022-10-17T10:09:25.603Z,59.962890625
2022-10-17T10:10:22.665Z,59.5576171875
2022-10-17T10:11:22.568Z,59.5302734375
2022-10-17T10:12:22.577Z,59.2138671875
2022-10-17T10:13:23.134Z,59.4609375
2022-10-17T10:14:22.696Z,58.4306640625
2022-10-17T10:15:22.614Z,58.8916015625
2022-10-17T10:16:22.602Z,57.74609375
2022-10-17T10:17:22.723Z,57.2607421875
2022-10-17T10:18:22.993Z,57.806640625
2022-10-17T10:19:22.680Z,57.58984375
2022-10-17T10:20:25.608Z,57.158203125
2022-10-17T10:21:22.798Z,57.0185546875
2022-10-17T10:22:22.711Z,57.1103515625
2022-10-17T10:23:23.020Z,57.2353515625
2022-10-17T10:24:25.845Z,56.6455078125
2022-10-17T10:25:22.595Z,56.2978515625
2022-10-17T10:26:25.627Z,56.4892578125
2022-10-17T10:27:22.699Z,55.7421875
2022-10-17T10:28:23.134Z,55.4599609375
2022-10-17T10:29:22.676Z,55.4716796875
2022-10-17T10:30:22.699Z,54.466796875
2022-10-17T10:31:22.698Z,54.65234375
2022-10-17T10:32:22.571Z,54.439453125
2022-10-17T10:33:23.021Z,54.3896484375
2022-10-17T10:34:22.825Z,53.771484375
2022-10-17T10:35:22.737Z,53.6318359375
2022-10-17T10:36:22.586Z,53.5673828125
2022-10-17T10:37:25.706Z,52.85546875
2022-10-17T10:38:22.974Z,53.5
2022-10-17T10:39:22.660Z,52.5517578125
2022-10-17T10:40:22.724Z,53.044921875
2022-10-17T10:41:22.632Z,53.4912109375
2022-10-17T10:42:22.716Z,53.1669921875
2022-10-17T10:43:23.001Z,53.189453125
2022-10-17T10:44:22.577Z,53.103515625
2022-10-17T10:45:35.902Z,53.109375
2022-10-17T10:46:22.573Z,52.9326171875
2022-10-17T10:47:22.595Z,53.6025390625
2022-10-17T10:48:28.673Z,53.962890625
2022-10-17T10:49:22.694Z,53.6513671875
2022-10-17T10:50:22.682Z,53.5302734375
2022-10-17T10:51:22.586Z,53.20703125
2022-10-17T10:52:22.744Z,52.1591796875
2022-10-17T10:53:23.020Z,52.0576171875
2022-10-17T10:54:22.675Z,51.0849609375
2022-10-17T10:55:22.678Z,50.861328125
2022-10-17T10:56:22.713Z,50.994140625
2022-10-17T10:57:22.706Z,50.259765625
2022-10-17T10:58:22.953Z,49.736328125
2022-10-17T10:59:25.620Z,49.0791015625
2022-10-17T11:00:22.846Z,48.4208984375
2022-10-17T11:01:22.711Z,47.79296875
2022-10-17T11:02:22.763Z,47.619140625
2022-10-17T11:03:23.015Z,47.626953125
2022-10-17T11:04:22.730Z,47.4501953125
2022-10-17T11:05:22.691Z,46.7646484375
2022-10-17T11:06:22.673Z,46.4501953125
2022-10-17T11:07:23.017Z,46.4189453125
2022-10-17T11:08:22.688Z,46.3134765625
2022-10-17T11:09:22.695Z,46.130859375
2022-10-17T11:10:25.693Z,45.90234375
2022-10-17T11:11:22.737Z,45.763671875
2022-10-17T11:12:23.069Z,46.037109375
2022-10-17T11:13:22.958Z,46.0390625
2022-10-17T11:14:22.674Z,45.962890625
2022-10-17T11:15:22.694Z,46.037109375
2022-10-17T11:16:22.677Z,45.44921875
2022-10-17T11:17:23.017Z,45.041015625
2022-10-17T11:18:22.808Z,45.001953125
2022-10-17T11:19:22.798Z,45.041015625
2022-10-17T11:20:22.665Z,45.09765625
2022-10-17T11:21:25.589Z,45.154296875
2022-10-17T11:22:25.315Z,45.1572265625
2022-10-17T11:23:22.670Z,45.3994140625
2022-10-17T11:24:22.735Z,45.1923828125
2022-10-17T11:25:22.676Z,45.193359375
2022-10-17T11:26:22.710Z,45.0029296875
2022-10-17T11:27:22.651Z,44.748046875
2022-10-17T11:28:23.165Z,44.1171875
2022-10-17T11:29:22.778Z,44.29296875
2022-10-17T11:30:22.796Z,43.994140625
2022-10-17T11:31:22.699Z,43.31640625
2022-10-17T11:32:28.901Z,43.94140625
2022-10-17T11:33:22.763Z,44.2724609375
2022-10-17T11:34:22.690Z,44.3583984375
2022-10-17T11:35:22.596Z,43.666015625
2022-10-17T11:36:22.661Z,43.5224609375
2022-10-17T11:37:23.058Z,44.41796875
2022-10-17T11:38:22.635Z,44.6357421875
2022-10-17T11:39:22.694Z,43.861328125
2022-10-17T11:40:24.482Z,43.9794921875
2022-10-17T11:41:22.565Z,43.732421875
2022-10-17T11:42:22.949Z,43.5615234375
2022-10-17T11:43:25.988Z,43.3720703125
2022-10-17T11:44:22.686Z,42.529296875
2022-10-17T11:45:22.570Z,42.7529296875
2022-10-17T11:46:22.594Z,42.583984375
2022-10-17T11:47:23.027Z,42.2431640625
2022-10-17T11:48:22.804Z,42.134765625
2022-10-17T11:49:22.623Z,41.74609375
2022-10-17T11:52:01.211Z,42.0205078125
2022-10-17T11:53:00.300Z,42.2568359375
2022-10-17T11:53:59.470Z,42.26953125
2022-10-17T11:54:59.353Z,42.2275390625
2022-10-17T11:55:59.477Z,42.5263671875
2022-10-17T11:57:02.537Z,42.7578125
2022-10-17T11:57:59.745Z,42.37890625
2022-10-17T11:58:59.738Z,42.8544921875
2022-10-17T11:59:59.569Z,43.6220703125
2022-10-17T12:00:59.537Z,43.65625
2022-10-17T12:01:59.378Z,43.693359375
2022-10-17T12:02:59.745Z,43.75390625
2022-10-17T12:03:59.484Z,43.41796875
2022-10-17T12:04:59.376Z,43.7705078125
2022-10-17T12:05:59.352Z,43.5078125
2022-10-17T12:06:59.491Z,43.2353515625
2022-10-17T12:08:05.468Z,43.4951171875
2022-10-17T12:08:59.573Z,42.6474609375
2022-10-17T12:09:59.383Z,43.0009765625
2022-10-17T12:10:59.504Z,43.4677734375
2022-10-17T12:11:59.433Z,43.4697265625
2022-10-17T12:12:59.793Z,43.0244140625
2022-10-17T12:14:02.622Z,43.2939453125
2022-10-17T12:14:59.462Z,43.66015625
2022-10-17T12:15:59.510Z,44.2080078125
2022-10-17T12:16:59.579Z,44.2470703125
2022-10-17T12:17:59.729Z,44.4892578125
2022-10-17T12:19:02.535Z,44.248046875
2022-10-17T12:19:59.572Z,44.0009765625
2022-10-17T12:20:59.591Z,44.76953125
2022-10-17T12:21:59.569Z,44.7861328125
2022-10-17T12:23:00.620Z,44.869140625
2022-10-17T12:23:59.450Z,44.560546875
2022-10-17T12:24:59.482Z,44.455078125
2022-10-17T12:26:01.580Z,43.91796875
2022-10-17T12:26:59.572Z,44.0458984375
2022-10-17T12:27:59.726Z,44.1962890625
2022-10-17T12:28:59.766Z,44.1494140625
2022-10-17T12:30:02.485Z,44.0048828125
2022-10-17T12:30:59.427Z,44.0185546875
2022-10-17T12:31:59.499Z,43.5439453125
2022-10-17T12:33:06.082Z,43.603515625
2022-10-17T12:33:59.530Z,43.58984375
2022-10-17T12:34:59.523Z,43.2294921875
2022-10-17T12:35:59.451Z,43.021484375
2022-10-17T12:36:59.365Z,43.0400390625
2022-10-17T12:37:59.808Z,43.8125
2022-10-17T12:38:59.451Z,43.33203125
2022-10-17T12:39:59.381Z,43.228515625
2022-10-17T12:41:02.410Z,43.6162109375
2022-10-17T12:41:59.522Z,43.134765625
2022-10-17T12:42:59.816Z,43.4404296875
2022-10-17T12:43:59.958Z,43.1708984375
2022-10-17T12:44:59.575Z,42.935546875
2022-10-17T12:45:59.467Z,43.0458984375
2022-10-17T12:46:59.374Z,43.470703125
2022-10-17T12:47:59.808Z,43.2333984375
2022-10-17T12:48:59.529Z,43.6533203125
2022-10-17T12:49:59.507Z,43.6787109375
2022-10-17T12:51:17.650Z,43.2392578125
2022-10-17T12:52:02.453Z,43.1669921875